createdAt,value
2018-04-11T00:00:02.443Z,95050.91
2018-04-11T00:02:29.977Z,95045.66
2018-04-11T00:04:57.526Z,95044.65
2018-04-11T00:07:25.476Z,95053.84
2018-04-11T00:09:53.061Z,95058.11
2018-04-11T00:12:21.803Z,95053.94
2018-04-11T00:14:49.343Z,95053.08
2018-04-11T00:17:17.249Z,95051.67
2018-04-11T00:19:44.806Z,95060.94
2018-04-11T00:22:12.356Z,95067.35
2018-04-11T00:24:39.956Z,95069.10
2018-04-11T00:27:07.595Z,95068.63
2018-04-11T00:29:35.185Z,95062.55
2018-04-11T00:32:02.742Z,95070.23
2018-04-11T00:34:30.280Z,95069.09
2018-04-11T00:36:57.844Z,95064.91
2018-04-11T00:39:25.420Z,95071.27
2018-04-11T00:41:52.965Z,95067.81
2018-04-11T00:44:21.472Z,95072.11
2018-04-11T00:46:49.282Z,95077.27
2018-04-11T00:49:17.080Z,95069.15
2018-04-11T00:51:45.562Z,95068.53
2018-04-11T00:54:13.103Z,95072.98
2018-04-11T00:56:40.635Z,95069.02
2018-04-11T00:59:08.219Z,95071.77
2018-04-11T01:01:35.754Z,95070.70
2018-04-11T01:04:03.291Z,95062.48
2018-04-11T01:06:31.084Z,95064.39
2018-04-11T01:08:58.631Z,95061.34
2018-04-11T01:11:26.280Z,95057.85
2018-04-11T01:13:53.913Z,95066.39
2018-04-11T01:16:21.468Z,95076.20
2018-04-11T01:18:49.030Z,95073.70
2018-04-11T01:21:16.548Z,95078.95
2018-04-11T01:23:44.115Z,95079.51
2018-04-11T01:26:11.653Z,95091.34
2018-04-11T01:28:39.194Z,95083.59
2018-04-11T01:31:06.766Z,95081.77
2018-04-11T01:33:34.628Z,95088.39
2018-04-11T01:36:02.422Z,95084.24
2018-04-11T01:38:31.041Z,95080.82
2018-04-11T01:40:58.573Z,95080.59
2018-04-11T01:43:26.140Z,95084.88
2018-04-11T01:45:53.704Z,95083.11
2018-04-11T01:48:21.253Z,95080.00
2018-04-11T01:50:48.795Z,95080.36
2018-04-11T01:53:16.312Z,95077.27
2018-04-11T01:55:43.883Z,95082.81
2018-04-11T01:58:11.419Z,95082.22
2018-04-11T02:00:40.170Z,95083.39
2018-04-11T02:03:07.764Z,95080.80
2018-04-11T02:05:35.529Z,95084.84
2018-04-11T02:08:03.100Z,95086.11
2018-04-11T02:10:31.659Z,95084.75
2018-04-11T02:12:59.186Z,95087.35
2018-04-11T02:15:27.543Z,95090.05
2018-04-11T02:17:56.733Z,95092.29
2018-04-11T02:20:26.863Z,95094.32
2018-04-11T02:22:54.494Z,95092.34
2018-04-11T02:25:22.085Z,95093.33
2018-04-11T02:27:49.771Z,95092.70
2018-04-11T02:30:17.341Z,95088.27
2018-04-11T02:32:45.247Z,95091.87
2018-04-11T02:35:13.218Z,95089.82
2018-04-11T02:37:42.466Z,95090.13
2018-04-11T02:40:10.012Z,95094.54
2018-04-11T02:42:38.573Z,95094.39
2018-04-11T02:45:06.396Z,95096.55
2018-04-11T02:47:35.930Z,95097.50
2018-04-11T02:50:03.576Z,95107.91
2018-04-11T02:52:31.107Z,95103.16
2018-04-11T02:54:58.653Z,95104.44
2018-04-11T02:57:26.747Z,95103.95
2018-04-11T02:59:54.329Z,95103.48
2018-04-11T03:02:21.906Z,95097.97
2018-04-11T03:04:49.459Z,95097.12
2018-04-11T03:07:17.076Z,95101.66
2018-04-11T03:09:44.634Z,95104.19
2018-04-11T03:12:12.216Z,95101.95
2018-04-11T03:14:39.784Z,95112.66
2018-04-11T03:17:08.284Z,95108.58
2018-04-11T03:19:36.196Z,95100.48
2018-04-11T03:22:03.985Z,95105.88
2018-04-11T03:24:31.557Z,95110.72
2018-04-11T03:26:59.135Z,95108.53
2018-04-11T03:29:26.660Z,95114.25
2018-04-11T03:31:54.197Z,95116.09
2018-04-11T03:34:21.734Z,95124.70
2018-04-11T03:36:49.601Z,95128.06
2018-04-11T03:39:17.164Z,95130.61
2018-04-11T03:41:44.713Z,95127.23
2018-04-11T03:44:12.344Z,95127.20
2018-04-11T03:46:39.893Z,95131.63
2018-04-11T03:49:07.833Z,95139.88
2018-04-11T03:51:35.421Z,95136.21
2018-04-11T03:54:03.146Z,95136.12
2018-04-11T03:56:31.366Z,95146.41
2018-04-11T03:58:58.919Z,95144.39
2018-04-11T04:01:26.482Z,95140.25
2018-04-11T04:03:56.452Z,95143.97
2018-04-11T04:06:24.040Z,95144.89
2018-04-11T04:08:51.582Z,95154.33
2018-04-11T04:14:21.238Z,95152.16
2018-04-11T04:17:00.581Z,95157.95
2018-04-11T04:19:33.966Z,95159.71
2018-04-11T04:22:01.539Z,95162.38
2018-04-11T04:24:29.967Z,95154.41
2018-04-11T04:26:57.512Z,95165.13
2018-04-11T04:29:25.128Z,95174.21
2018-04-11T04:31:52.684Z,95175.11
2018-04-11T04:34:20.250Z,95182.64
2018-04-11T04:36:47.840Z,95184.64
2018-04-11T04:39:15.374Z,95191.36
2018-04-11T04:41:44.508Z,95195.55
2018-04-11T04:44:12.152Z,95197.27
2018-04-11T04:46:40.310Z,95199.31
2018-04-11T04:49:07.808Z,95208.31
2018-04-11T04:51:36.468Z,95217.16
2018-04-11T04:54:04.077Z,95217.48
2018-04-11T04:56:31.662Z,95220.02
2018-04-11T04:58:59.210Z,95221.85
2018-04-11T05:01:26.817Z,95227.53
2018-04-11T05:03:54.363Z,95224.02
2018-04-11T05:06:21.996Z,95228.11
2018-04-11T05:08:49.578Z,95223.63
2018-04-11T05:11:17.136Z,95229.98
2018-04-11T05:13:44.671Z,95235.08
2018-04-11T05:16:12.261Z,95241.05
2018-04-11T05:18:41.129Z,95242.75
2018-04-11T05:21:09.585Z,95252.69
2018-04-11T05:23:37.234Z,95248.28
2018-04-11T05:26:06.120Z,95247.31
2018-04-11T05:28:33.791Z,95244.47
2018-04-11T05:31:01.372Z,95246.28
2018-04-11T05:33:29.039Z,95242.88
2018-04-11T05:35:57.178Z,95243.47
2018-04-11T05:38:24.761Z,95244.55
2018-04-11T05:40:52.343Z,95248.53
2018-04-11T05:43:20.044Z,95249.58
2018-04-11T05:45:47.673Z,95249.52
2018-04-11T05:48:15.237Z,95252.37
2018-04-11T05:50:42.788Z,95253.73
2018-04-11T05:53:10.864Z,95245.64
2018-04-11T05:55:38.437Z,95236.95
2018-04-11T05:58:05.975Z,95238.67
2018-04-11T06:00:35.014Z,95241.11
2018-04-11T06:03:02.578Z,95241.17
2018-04-11T06:05:33.319Z,95237.00
2018-04-11T06:08:01.176Z,95234.88
2018-04-11T06:10:29.924Z,95233.20
2018-04-11T06:12:59.685Z,95232.30
2018-04-11T06:15:27.773Z,95232.85
2018-04-11T06:17:55.367Z,95239.16
2018-04-11T06:20:22.925Z,95246.69
2018-04-11T06:22:50.726Z,95243.49
2018-04-11T06:25:18.262Z,95243.37
2018-04-11T06:27:45.811Z,95244.42
2018-04-11T06:30:13.486Z,95242.42
2018-04-11T06:32:46.633Z,95242.73
2018-04-11T06:35:14.492Z,95242.50
2018-04-11T06:37:44.344Z,95248.34
2018-04-11T06:40:12.029Z,95249.20
2018-04-11T06:42:44.007Z,95254.66
2018-04-11T06:45:12.318Z,95255.80
2018-04-11T06:47:43.564Z,95254.60
2018-04-11T06:50:14.383Z,95253.67
2018-04-11T06:52:45.944Z,95251.58
2018-04-11T06:55:14.846Z,95254.18
2018-04-11T06:57:43.749Z,95254.89
2018-04-11T07:00:11.410Z,95255.09
2018-04-11T07:02:38.980Z,95252.71
2018-04-11T07:05:06.803Z,95248.25
2018-04-11T07:07:34.339Z,95252.46
2018-04-11T07:10:01.897Z,95256.41
2018-04-11T07:12:29.443Z,95257.59
2018-04-11T07:14:57.001Z,95258.80
2018-04-11T07:17:24.544Z,95257.45
2018-04-11T07:19:53.201Z,95259.27
2018-04-11T07:22:20.967Z,95262.41
2018-04-11T07:24:48.519Z,95261.42
2018-04-11T07:27:16.611Z,95260.84
2018-04-11T07:29:44.373Z,95258.20
2018-04-11T07:32:12.132Z,95259.80
2018-04-11T07:34:43.155Z,95257.93
2018-04-11T07:37:10.817Z,95249.39
2018-04-11T07:39:39.171Z,95250.04
2018-04-11T07:42:06.937Z,95252.30
2018-04-11T07:44:34.949Z,95248.33
2018-04-11T07:47:02.671Z,95253.45
2018-04-11T07:49:31.133Z,95255.53
2018-04-11T07:51:59.805Z,95254.70
2018-04-11T07:54:27.426Z,95259.83
2018-04-11T07:56:54.920Z,95262.09
2018-04-11T07:59:22.476Z,95259.67
2018-04-11T08:01:50.092Z,95259.57
2018-04-11T08:04:17.899Z,95259.61
2018-04-11T08:06:45.471Z,95255.91
2018-04-11T08:09:13.516Z,95253.52
2018-04-11T08:11:42.593Z,95261.16
2018-04-11T08:14:11.927Z,95260.84
2018-04-11T08:16:40.169Z,95264.59
2018-04-11T08:19:08.049Z,95263.42
2018-04-11T08:21:36.351Z,95266.32
2018-04-11T08:24:03.361Z,95267.72
2018-04-11T08:26:30.917Z,95258.73
2018-04-11T08:28:58.505Z,95258.88
2018-04-11T08:31:26.766Z,95261.03
2018-04-11T08:33:54.354Z,95261.14
2018-04-11T08:36:22.016Z,95258.59
2018-04-11T08:38:49.570Z,95259.57
2018-04-11T08:41:17.641Z,95259.66
2018-04-11T08:43:46.629Z,95261.95
2018-04-11T08:46:14.174Z,95254.38
2018-04-11T08:48:41.713Z,95255.89
2018-04-11T08:51:09.419Z,95255.78
2018-04-11T08:53:37.832Z,95255.75
2018-04-11T08:56:05.425Z,95258.64
2018-04-11T08:58:34.053Z,95261.37
2018-04-11T09:01:01.607Z,95263.13
2018-04-11T09:03:29.227Z,95257.81
2018-04-11T09:05:58.480Z,95259.67
2018-04-11T09:08:26.076Z,95256.81
2018-04-11T09:10:53.646Z,95251.08
2018-04-11T09:13:21.420Z,95248.08
2018-04-11T09:15:49.024Z,95254.77
2018-04-11T09:18:16.587Z,95250.66
2018-04-11T09:20:45.211Z,95257.17
2018-04-11T09:23:13.597Z,95251.46
2018-04-11T09:25:41.281Z,95247.60
2018-04-11T09:28:08.814Z,95241.09
2018-04-11T09:30:38.986Z,95245.98
2018-04-11T09:33:07.339Z,95241.77
2018-04-11T09:35:35.124Z,95236.34
2018-04-11T09:38:02.666Z,95241.11
2018-04-11T09:40:30.221Z,95237.97
2018-04-11T09:42:57.780Z,95242.84
2018-04-11T09:45:25.438Z,95237.98
2018-04-11T09:47:54.139Z,95239.30
2018-04-11T09:50:21.693Z,95231.38
2018-04-11T09:52:49.234Z,95230.71
2018-04-11T09:55:16.785Z,95230.58
2018-04-11T09:57:44.338Z,95230.86
2018-04-11T10:00:11.887Z,95224.96
2018-04-11T10:02:39.934Z,95229.86
2018-04-11T10:05:07.914Z,95223.77
2018-04-11T10:07:40.387Z,95225.27
2018-04-11T10:10:08.522Z,95222.61
2018-04-11T10:12:37.179Z,95224.58
2018-04-11T10:15:06.995Z,95218.31
2018-04-11T10:17:35.579Z,95214.06
2018-04-11T10:20:10.413Z,95218.30
2018-04-11T10:22:41.763Z,95217.27
2018-04-11T10:25:09.794Z,95221.03
2018-04-11T10:27:37.716Z,95223.23
2018-04-11T10:30:08.725Z,95218.98
2018-04-11T10:32:36.706Z,95217.83
2018-04-11T10:35:04.392Z,95216.71
2018-04-11T10:37:32.531Z,95217.41
2018-04-11T10:40:05.323Z,95212.50
2018-04-11T10:42:35.564Z,95219.28
2018-04-11T10:45:11.341Z,95217.48
2018-04-11T10:47:42.836Z,95221.25
2018-04-11T10:50:15.700Z,95217.44
2018-04-11T10:52:45.499Z,95213.77
2018-04-11T10:55:13.946Z,95214.87
2018-04-11T10:57:41.528Z,95214.71
2018-04-11T11:00:09.563Z,95211.58
2018-04-11T11:02:37.288Z,95216.27
2018-04-11T11:05:06.415Z,95218.89
2018-04-11T11:07:35.345Z,95217.13
2018-04-11T11:10:03.071Z,95204.00
2018-04-11T11:12:31.159Z,95200.11
2018-04-11T11:14:59.235Z,95208.37
2018-04-11T11:17:27.762Z,95209.25
2018-04-11T11:20:02.338Z,95205.90
2018-04-11T11:22:33.552Z,95201.45
2018-04-11T11:25:01.113Z,95194.95
2018-04-11T11:27:28.701Z,95201.41
2018-04-11T11:29:56.985Z,95195.53
2018-04-11T11:32:24.533Z,95188.66
2018-04-11T11:34:52.097Z,95188.91
2018-04-11T11:37:20.067Z,95190.52
2018-04-11T11:39:48.536Z,95185.02
2018-04-11T11:42:16.192Z,95177.97
2018-04-11T11:44:44.095Z,95176.03
2018-04-11T11:47:11.708Z,95175.31
2018-04-11T11:49:43.369Z,95170.17
2018-04-11T11:52:10.929Z,95159.02
2018-04-11T11:54:39.739Z,95148.11
2018-04-11T11:57:07.354Z,95165.92
2018-04-11T11:59:37.175Z,95150.25
2018-04-11T12:02:04.913Z,95153.78
2018-04-11T12:04:32.843Z,95149.10
2018-04-11T12:07:00.473Z,95139.86
2018-04-11T12:09:28.781Z,95141.62
2018-04-11T12:11:56.395Z,95142.45
2018-04-11T12:14:23.952Z,95135.78
2018-04-11T12:16:51.502Z,95132.41
2018-04-11T12:19:19.091Z,95131.34
2018-04-11T12:21:49.007Z,95131.69
2018-04-11T12:24:17.340Z,95138.25
2018-04-11T12:26:44.978Z,95121.81
2018-04-11T12:29:12.702Z,95113.38
2018-04-11T12:31:40.282Z,95122.36
2018-04-11T12:34:08.676Z,95121.48
2018-04-11T12:36:36.221Z,95122.80
2018-04-11T12:39:03.865Z,95112.07
2018-04-11T12:41:31.643Z,95109.55
2018-04-11T12:43:59.176Z,95114.95
2018-04-11T12:46:26.736Z,95108.90
2018-04-11T12:48:54.266Z,95123.11
2018-04-11T12:51:21.812Z,95122.64
2018-04-11T12:53:51.711Z,95126.21
2018-04-11T12:56:19.274Z,95119.81
2018-04-11T12:58:46.854Z,95123.88
2018-04-11T13:01:14.412Z,95126.34
2018-04-11T13:03:42.011Z,95122.81
2018-04-11T13:06:09.660Z,95124.05
2018-04-11T13:08:37.383Z,95121.86
2018-04-11T13:11:04.942Z,95116.37
2018-04-11T13:13:32.468Z,95122.27
2018-04-11T13:16:00.009Z,95126.22
2018-04-11T13:18:28.425Z,95121.16
2018-04-11T13:20:55.960Z,95117.92
2018-04-11T13:23:23.722Z,95114.93
2018-04-11T13:25:52.623Z,95114.25
2018-04-11T13:28:20.178Z,95113.77
2018-04-11T13:30:48.603Z,95109.28
2018-04-11T13:33:16.248Z,95105.20
2018-04-11T13:35:43.794Z,95101.72
2018-04-11T13:38:12.051Z,95103.09
2018-04-11T13:40:41.718Z,95106.30
2018-04-11T13:43:09.282Z,95111.30
2018-04-11T13:45:37.148Z,95098.56
2018-04-11T13:48:04.738Z,95097.20
2018-04-11T13:50:32.316Z,95094.96
2018-04-11T13:52:59.870Z,95099.24
2018-04-11T13:55:27.432Z,95093.52
2018-04-11T13:57:56.914Z,95098.19
2018-04-11T14:00:24.504Z,95099.14
2018-04-11T14:02:53.217Z,95096.95
2018-04-11T14:05:22.371Z,95101.96
2018-04-11T14:08:00.262Z,95098.32
2018-04-11T14:10:28.125Z,95099.31
2018-04-11T14:12:56.881Z,95099.58
2018-04-11T14:15:24.467Z,95104.92
2018-04-11T14:17:53.087Z,95104.78
2018-04-11T14:20:22.936Z,95100.30
2018-04-11T14:22:54.400Z,95099.75
2018-04-11T14:25:22.324Z,95098.31
2018-04-11T14:27:52.461Z,95092.30
2018-04-11T14:30:20.035Z,95085.36
2018-04-11T14:32:49.388Z,95089.57
2018-04-11T14:35:18.070Z,95095.23
2018-04-11T14:37:53.274Z,95082.98
2018-04-11T14:40:21.497Z,95086.39
2018-04-11T14:42:56.746Z,95089.80
2018-04-11T14:45:24.680Z,95096.32
2018-04-11T14:47:57.117Z,95094.97
2018-04-11T14:50:25.141Z,95094.37
2018-04-11T14:52:56.458Z,95095.09
2018-04-11T14:55:24.430Z,95094.52
2018-04-11T14:57:53.643Z,95101.59
2018-04-11T15:00:21.203Z,95111.06
2018-04-11T15:02:48.790Z,95100.55
2018-04-11T15:05:16.317Z,95100.03
2018-04-11T15:07:43.860Z,95110.36
2018-04-11T15:10:11.445Z,95107.37
2018-04-11T15:12:39.157Z,95107.09
2018-04-11T15:15:06.705Z,95104.91
2018-04-11T15:17:35.173Z,95110.56
2018-04-11T15:20:03.511Z,95100.34
2018-04-11T15:22:31.304Z,95110.70
2018-04-11T15:24:58.863Z,95108.29
2018-04-11T15:27:27.369Z,95114.23
2018-04-11T15:29:54.989Z,95111.00
2018-04-11T15:32:22.548Z,95113.22
2018-04-11T15:34:50.118Z,95107.90
2018-04-11T15:37:17.727Z,95108.70
2018-04-11T15:39:47.138Z,95109.58
2018-04-11T15:42:14.887Z,95108.98
2018-04-11T15:44:42.666Z,95111.97
2018-04-11T15:47:10.344Z,95105.52
2018-04-11T15:49:40.688Z,95104.28
2018-04-11T15:52:08.852Z,95108.56
2018-04-11T15:54:36.547Z,95109.17
2018-04-11T15:57:04.801Z,95112.72
2018-04-11T15:59:32.726Z,95108.95
2018-04-11T16:02:00.586Z,95121.08
2018-04-11T16:04:28.175Z,95110.47
2018-04-11T16:06:55.787Z,95113.39
2018-04-11T16:09:25.396Z,95112.34
2018-04-11T16:11:55.101Z,95112.64
2018-04-11T16:14:22.777Z,95115.80
2018-04-11T16:16:52.983Z,95111.72
2018-04-11T16:19:22.577Z,95115.36
2018-04-11T16:21:50.271Z,95111.21
2018-04-11T16:24:18.487Z,95118.59
2018-04-11T16:26:46.044Z,95120.92
2018-04-11T16:29:16.738Z,95121.91
2018-04-11T16:31:44.501Z,95122.69
2018-04-11T16:34:13.146Z,95118.91
2018-04-11T16:36:40.676Z,95116.39
2018-04-11T16:39:08.519Z,95117.30
2018-04-11T16:41:36.102Z,95116.73
2018-04-11T16:44:03.718Z,95118.09
2018-04-11T16:46:35.286Z,95123.56
2018-04-11T16:49:03.061Z,95119.74
2018-04-11T16:51:31.036Z,95118.20
2018-04-11T16:53:59.219Z,95110.02
2018-04-11T16:56:26.818Z,95113.08
2018-04-11T16:58:54.372Z,95110.56
2018-04-11T17:01:22.240Z,95115.02
2018-04-11T17:03:51.101Z,95114.63
2018-04-11T17:06:18.691Z,95113.44
2018-04-11T17:08:46.946Z,95115.80
2018-04-11T17:11:14.742Z,95114.84
2018-04-11T17:13:43.668Z,95114.05
2018-04-11T17:16:11.396Z,95121.09
2018-04-11T17:18:45.271Z,95128.93
2018-04-11T17:21:24.694Z,95132.64
2018-04-11T17:24:04.037Z,95142.02
2018-04-11T17:26:43.452Z,95136.44
2018-04-11T17:29:23.032Z,95143.32
2018-04-11T17:31:51.284Z,95141.87
2018-04-11T17:34:18.890Z,95146.02
2018-04-11T17:36:46.461Z,95142.14
2018-04-11T17:39:14.228Z,95141.72
2018-04-11T17:41:42.111Z,95147.64
2018-04-11T17:44:09.737Z,95150.36
2018-04-11T17:46:37.367Z,95150.79
2018-04-11T17:49:04.947Z,95154.09
2018-04-11T17:51:32.663Z,95155.89
2018-04-11T17:54:00.290Z,95156.86
2018-04-11T17:56:27.844Z,95148.84
2018-04-11T17:58:55.464Z,95155.41
2018-04-11T18:01:23.071Z,95154.83
2018-04-11T18:03:52.936Z,95160.92
2018-04-11T18:06:23.711Z,95160.94
2018-04-11T18:11:30.946Z,95171.66
2018-04-11T18:14:06.544Z,95172.92
2018-04-11T18:16:38.119Z,95173.05
2018-04-11T18:19:06.158Z,95168.34
2018-04-11T18:21:36.890Z,95172.84
2018-04-11T18:24:06.887Z,95168.58
2018-04-11T18:26:34.606Z,95170.68
2018-04-11T18:29:06.251Z,95165.22
2018-04-11T18:31:34.116Z,95167.33
2018-04-11T18:34:02.093Z,95168.31
2018-04-11T18:36:29.915Z,95177.06
2018-04-11T18:39:00.499Z,95179.34
2018-04-11T18:41:28.033Z,95179.20
2018-04-11T18:44:00.048Z,95177.03
2018-04-11T18:49:00.110Z,95183.97
2018-04-11T18:51:32.254Z,95177.69
2018-04-11T18:54:01.434Z,95177.06
2018-04-11T18:56:29.500Z,95174.94
2018-04-11T18:58:57.051Z,95178.78
2018-04-11T19:01:24.629Z,95174.30
2018-04-11T19:03:52.864Z,95179.03
2018-04-11T19:06:21.091Z,95181.44
2018-04-11T19:08:48.867Z,95183.30
2018-04-11T19:11:16.403Z,95182.56
2018-04-11T19:13:47.348Z,95193.11
2018-04-11T19:16:14.909Z,95196.00
2018-04-11T19:18:44.815Z,95195.42
2018-04-11T19:21:12.696Z,95198.55
2018-04-11T19:23:41.009Z,95201.44
2018-04-11T19:26:08.717Z,95202.13
2018-04-11T19:28:37.608Z,95201.16
2018-04-11T19:31:05.174Z,95198.89
2018-04-11T19:33:33.489Z,95204.50
2018-04-11T19:36:02.816Z,95209.49
2018-04-11T19:38:30.698Z,95210.76
2018-04-11T19:40:58.260Z,95205.19
2018-04-11T19:43:25.928Z,95203.72
2018-04-11T19:45:53.536Z,95201.56
2018-04-11T19:48:21.080Z,95196.08
2018-04-11T19:50:48.653Z,95199.28
2018-04-11T19:53:16.302Z,95198.53
2018-04-11T19:55:43.856Z,95197.56
2018-04-11T19:58:11.417Z,95196.43
2018-04-11T20:00:39.380Z,95195.62
2018-04-11T20:03:07.258Z,95201.45
2018-04-11T20:05:35.274Z,95200.70
2018-04-11T20:08:05.541Z,95202.20
2018-04-11T20:10:33.352Z,95197.79
2018-04-11T20:13:00.902Z,95199.92
2018-04-11T20:15:28.868Z,95199.48
2018-04-11T20:17:56.414Z,95205.97
2018-04-11T20:20:23.967Z,95202.62
2018-04-11T20:22:51.548Z,95203.87
2018-04-11T20:25:19.081Z,95203.83
2018-04-11T20:27:47.966Z,95195.11
2018-04-11T20:30:15.964Z,95201.69
2018-04-11T20:32:43.524Z,95201.36
2018-04-11T20:35:11.467Z,95205.80
2018-04-11T20:37:39.610Z,95204.46
2018-04-11T20:40:07.145Z,95204.42
2018-04-11T20:42:35.039Z,95205.95
2018-04-11T20:45:02.854Z,95217.37
2018-04-11T20:47:33.008Z,95217.36
2018-04-11T20:50:00.764Z,95220.50
2018-04-11T20:52:28.395Z,95221.78
2018-04-11T20:54:55.970Z,95220.75
2018-04-11T20:57:23.520Z,95224.25
2018-04-11T20:59:51.045Z,95221.87
2018-04-11T21:02:18.618Z,95225.02
2018-04-11T21:04:46.163Z,95224.91
2018-04-11T21:07:14.251Z,95225.20
2018-04-11T21:09:41.979Z,95232.80
2018-04-11T21:12:09.545Z,95226.72
2018-04-11T21:14:37.079Z,95232.16
2018-04-11T21:17:04.895Z,95226.23
2018-04-11T21:19:34.112Z,95229.15
2018-04-11T21:22:01.693Z,95226.38
2018-04-11T21:24:30.278Z,95224.17
2018-04-11T21:26:57.939Z,95231.44
2018-04-11T21:29:26.873Z,95232.80
2018-04-11T21:31:54.448Z,95233.94
2018-04-11T21:34:22.139Z,95240.70
2018-04-11T21:36:49.705Z,95236.08
2018-04-11T21:39:17.844Z,95228.33
2018-04-11T21:41:45.522Z,95224.16
2018-04-11T21:44:13.082Z,95219.73
2018-04-11T21:46:40.677Z,95221.36
2018-04-11T21:49:08.372Z,95221.67
2018-04-11T21:51:35.954Z,95221.86
2018-04-11T21:54:03.585Z,95217.46
2018-04-11T21:56:31.161Z,95215.92
2018-04-11T21:58:58.693Z,95216.50
2018-04-11T22:01:29.023Z,95215.13
2018-04-11T22:03:56.913Z,95210.83
2018-04-11T22:06:27.941Z,95214.99
2018-04-11T22:08:55.578Z,95210.91
2018-04-11T22:11:23.171Z,95212.60
2018-04-11T22:13:50.726Z,95207.21
2018-04-11T22:16:20.063Z,95208.34
2018-04-11T22:18:49.301Z,95201.72
2018-04-11T22:21:17.500Z,95196.45
2018-04-11T22:23:46.479Z,95199.17
2018-04-11T22:26:14.050Z,95195.98
2018-04-11T22:28:44.320Z,95192.95
2018-04-11T22:31:12.537Z,95197.64
2018-04-11T22:33:42.040Z,95195.39
2018-04-11T22:36:09.582Z,95194.62
2018-04-11T22:38:40.770Z,95187.38
2018-04-11T22:41:08.909Z,95193.80
2018-04-11T22:43:38.272Z,95194.01
2018-04-11T22:46:05.891Z,95196.66
2018-04-11T22:48:35.414Z,95194.01
2018-04-11T22:51:02.960Z,95194.16
2018-04-11T22:53:34.289Z,95191.42
2018-04-11T22:56:04.121Z,95197.42
2018-04-11T22:58:32.247Z,95195.44
2018-04-11T23:00:59.957Z,95196.54
2018-04-11T23:03:27.577Z,95202.89
2018-04-11T23:05:56.819Z,95205.94
2018-04-11T23:08:26.093Z,95202.09
2018-04-11T23:10:53.700Z,95208.48
2018-04-11T23:13:21.429Z,95197.61
2018-04-11T23:15:51.436Z,95200.20
2018-04-11T23:18:20.291Z,95197.48
2018-04-11T23:20:48.158Z,95193.97
2018-04-11T23:26:06.078Z,95191.72
2018-04-11T23:28:33.613Z,95193.16
2018-04-11T23:31:01.161Z,95185.70
2018-04-11T23:33:28.793Z,95186.11
2018-04-11T23:35:56.396Z,95189.19
2018-04-11T23:38:24.081Z,95179.77
2018-04-11T23:40:51.633Z,95176.63
2018-04-11T23:43:19.537Z,95176.63
2018-04-11T23:45:47.739Z,95179.57
2018-04-11T23:48:15.295Z,95167.64
2018-04-11T23:50:43.141Z,95168.70
2018-04-11T23:53:11.714Z,95159.14
2018-04-11T23:55:41.914Z,95156.34
2018-04-11T23:58:09.690Z,95157.94
